createdAt,value
2022-10-09T00:00:33.069Z,13.83
2022-10-09T00:01:33.020Z,13.74
2022-10-09T00:02:33.130Z,13.77
2022-10-09T00:03:32.996Z,13.75
2022-10-09T00:04:32.999Z,13.85
2022-10-09T00:05:33.006Z,13.79
2022-10-09T00:06:32.962Z,13.85
2022-10-09T00:07:33.090Z,13.87
2022-10-09T00:08:32.936Z,13.78
2022-10-09T00:09:32.929Z,13.83
2022-10-09T00:10:32.945Z,13.87
2022-10-09T00:11:32.908Z,13.87
2022-10-09T00:12:32.895Z,13.83
2022-10-09T00:13:32.880Z,13.85
2022-10-09T00:14:32.870Z,13.85
2022-10-09T00:15:32.853Z,13.79
2022-10-09T00:16:33.269Z,13.93
2022-10-09T00:17:32.862Z,13.78
2022-10-09T00:18:32.821Z,13.86
2022-10-09T00:19:32.815Z,13.87
2022-10-09T00:20:32.799Z,13.83
2022-10-09T00:21:32.801Z,13.86
2022-10-09T00:22:32.894Z,13.78
2022-10-09T00:23:32.771Z,13.81
2022-10-09T00:24:32.760Z,13.89
2022-10-09T00:25:32.737Z,13.89
2022-10-09T00:26:32.744Z,13.92
2022-10-09T00:27:32.722Z,13.89
2022-10-09T00:28:37.716Z,13.90
2022-10-09T00:29:33.699Z,13.90
2022-10-09T00:30:32.791Z,13.93
2022-10-09T00:31:32.692Z,13.83
2022-10-09T00:32:32.695Z,13.85
2022-10-09T00:33:32.651Z,13.93
2022-10-09T00:34:32.687Z,13.83
2022-10-09T00:35:32.655Z,13.87
2022-10-09T00:36:32.617Z,13.83
2022-10-09T00:37:32.607Z,13.85
2022-10-09T00:38:32.605Z,13.85
2022-10-09T00:39:32.586Z,13.81
2022-10-09T00:40:32.626Z,13.85
2022-10-09T00:41:32.558Z,13.87
2022-10-09T00:42:32.555Z,13.85
2022-10-09T00:43:32.539Z,13.78
2022-10-09T00:44:32.528Z,13.89
2022-10-09T00:45:32.519Z,13.85
2022-10-09T00:46:32.661Z,13.86
2022-10-09T00:47:32.494Z,13.85
2022-10-09T00:48:32.506Z,13.86
2022-10-09T00:49:32.472Z,13.86
2022-10-09T00:50:32.454Z,13.92
2022-10-09T00:51:32.449Z,13.85
2022-10-09T00:52:32.466Z,13.78
2022-10-09T00:53:32.429Z,13.74
2022-10-09T00:54:32.413Z,13.86
2022-10-09T00:55:32.395Z,13.81
2022-10-09T00:56:32.401Z,13.86
2022-10-09T00:57:32.380Z,13.83
2022-10-09T00:58:32.399Z,13.81
2022-10-09T00:59:32.355Z,13.92
2022-10-09T01:00:32.345Z,13.93
2022-10-09T01:01:32.382Z,13.86
2022-10-09T01:02:32.376Z,13.85
2022-10-09T01:03:32.320Z,13.79
2022-10-09T01:04:32.333Z,13.89
2022-10-09T01:05:32.301Z,13.93
2022-10-09T01:06:32.274Z,13.93
2022-10-09T01:07:32.260Z,13.86
2022-10-09T01:08:32.259Z,13.79
2022-10-09T01:09:32.237Z,13.78
2022-10-09T01:10:32.247Z,13.85
2022-10-09T01:11:32.213Z,13.86
2022-10-09T01:12:32.207Z,13.87
2022-10-09T01:13:32.203Z,13.85
2022-10-09T01:14:32.183Z,13.75
2022-10-09T01:15:32.246Z,13.89
2022-10-09T01:16:32.189Z,13.77
2022-10-09T01:17:32.149Z,13.71
2022-10-09T01:18:32.172Z,13.81
2022-10-09T01:19:32.128Z,13.81
2022-10-09T01:20:32.148Z,13.78
2022-10-09T01:21:32.111Z,13.83
2022-10-09T01:22:32.131Z,13.78
2022-10-09T01:23:32.087Z,13.79
2022-10-09T01:24:32.069Z,13.74
2022-10-09T01:25:32.062Z,13.72
2022-10-09T01:26:32.045Z,13.78
2022-10-09T01:27:32.041Z,13.75
2022-10-09T01:28:32.140Z,13.78
2022-10-09T01:29:32.014Z,13.86
2022-10-09T01:30:31.996Z,13.77
2022-10-09T01:31:32.043Z,13.72
2022-10-09T01:32:31.979Z,13.78
2022-10-09T01:33:31.966Z,13.77
2022-10-09T01:34:31.973Z,13.75
2022-10-09T01:35:31.942Z,13.85
2022-10-09T01:36:31.955Z,13.77
2022-10-09T01:37:31.933Z,13.81
2022-10-09T01:38:31.911Z,13.75
2022-10-09T01:39:31.914Z,13.81
2022-10-09T01:40:31.898Z,13.75
2022-10-09T01:41:31.888Z,13.71
2022-10-09T01:42:31.864Z,13.75
2022-10-09T01:43:31.857Z,13.71
2022-10-09T01:44:31.844Z,13.71
2022-10-09T01:45:31.830Z,13.70
2022-10-09T01:46:31.979Z,13.60
2022-10-09T01:47:31.806Z,13.60
2022-10-09T01:48:31.790Z,13.59
2022-10-09T01:49:31.787Z,13.59
2022-10-09T01:50:31.769Z,13.54
2022-10-09T01:51:31.763Z,13.52
2022-10-09T01:52:31.810Z,13.50
2022-10-09T01:53:31.738Z,13.49
2022-10-09T01:54:31.722Z,13.49
2022-10-09T01:55:31.723Z,13.46
2022-10-09T01:56:31.700Z,13.38
2022-10-09T01:57:31.695Z,13.44
2022-10-09T01:58:31.721Z,13.38
2022-10-09T01:59:31.667Z,13.41
2022-10-09T02:00:31.676Z,13.38
2022-10-09T02:01:31.784Z,13.28
2022-10-09T02:02:31.740Z,13.37
2022-10-09T02:03:31.655Z,13.31
2022-10-09T02:04:31.623Z,13.37
2022-10-09T02:05:31.603Z,13.23
2022-10-09T02:06:31.584Z,13.25
2022-10-09T02:07:31.567Z,13.31
2022-10-09T02:08:31.612Z,13.30
2022-10-09T02:09:31.547Z,13.28
2022-10-09T02:10:31.557Z,13.33
2022-10-09T02:11:31.539Z,13.33
2022-10-09T02:12:31.515Z,13.30
2022-10-09T02:13:31.509Z,13.31
2022-10-09T02:14:31.656Z,13.44
2022-10-09T02:15:31.564Z,13.37
2022-10-09T02:16:36.155Z,13.38
2022-10-09T02:17:32.501Z,13.46
2022-10-09T02:18:31.452Z,13.47
2022-10-09T02:19:31.446Z,13.50
2022-10-09T02:20:31.435Z,13.52
2022-10-09T02:21:31.417Z,13.52
2022-10-09T02:22:31.437Z,13.59
2022-10-09T02:23:31.388Z,13.60
2022-10-09T02:24:31.407Z,13.59
2022-10-09T02:25:31.382Z,13.60
2022-10-09T02:26:31.361Z,13.71
2022-10-09T02:27:31.355Z,13.67
2022-10-09T02:28:31.420Z,13.65
2022-10-09T02:29:31.325Z,13.68
2022-10-09T02:30:31.310Z,13.65
2022-10-09T02:31:31.359Z,13.74
2022-10-09T02:32:31.291Z,13.72
2022-10-09T02:33:31.279Z,13.77
2022-10-09T02:34:31.353Z,13.67
2022-10-09T02:35:31.260Z,13.72
2022-10-09T02:36:31.243Z,13.68
2022-10-09T02:37:31.225Z,13.68
2022-10-09T02:38:31.225Z,13.74
2022-10-09T02:39:31.208Z,13.60
2022-10-09T02:40:31.371Z,13.59
2022-10-09T02:41:31.185Z,13.57
2022-10-09T02:42:31.175Z,13.54
2022-10-09T02:43:31.165Z,13.56
2022-10-09T02:44:31.148Z,13.53
2022-10-09T02:45:31.144Z,13.53
2022-10-09T02:46:31.234Z,13.52
2022-10-09T02:47:31.120Z,13.52
2022-10-09T02:48:31.105Z,13.44
2022-10-09T02:49:31.106Z,13.44
2022-10-09T02:50:31.085Z,13.35
2022-10-09T02:51:31.071Z,13.28
2022-10-09T02:52:31.127Z,13.27
2022-10-09T02:53:31.042Z,13.27
2022-10-09T02:54:31.040Z,13.31
2022-10-09T02:55:31.080Z,13.30
2022-10-09T02:56:34.516Z,13.28
2022-10-09T02:57:32.031Z,13.30
2022-10-09T02:58:31.000Z,13.25
2022-10-09T02:59:30.977Z,13.27
2022-10-09T03:00:30.969Z,13.28
2022-10-09T03:01:30.997Z,13.27
2022-10-09T03:02:31.116Z,13.35
2022-10-09T03:03:30.965Z,13.25
2022-10-09T03:04:30.923Z,13.30
2022-10-09T03:05:30.910Z,13.27
2022-10-09T03:06:30.944Z,13.27
2022-10-09T03:07:30.893Z,13.28
2022-10-09T03:08:30.876Z,13.23
2022-10-09T03:09:33.687Z,13.31
2022-10-09T03:10:30.872Z,13.19
2022-10-09T03:11:30.838Z,13.28
2022-10-09T03:12:30.855Z,13.27
2022-10-09T03:13:30.817Z,13.31
2022-10-09T03:14:30.807Z,13.27
2022-10-09T03:15:30.832Z,13.31
2022-10-09T03:16:30.872Z,13.37
2022-10-09T03:17:30.768Z,13.30
2022-10-09T03:18:30.770Z,13.35
2022-10-09T03:19:30.752Z,13.28
2022-10-09T03:20:30.748Z,13.38
2022-10-09T03:21:30.744Z,13.37
2022-10-09T03:22:30.719Z,13.41
2022-10-09T03:23:30.724Z,13.35
2022-10-09T03:24:30.691Z,13.42
2022-10-09T03:25:30.700Z,13.35
2022-10-09T03:26:30.667Z,13.41
2022-10-09T03:27:30.734Z,13.37
2022-10-09T03:28:30.756Z,13.41
2022-10-09T03:29:30.633Z,13.44
2022-10-09T03:30:30.631Z,13.35
2022-10-09T03:31:51.160Z,13.35
2022-10-09T03:32:31.672Z,13.35
2022-10-09T03:33:30.594Z,13.41
2022-10-09T03:34:30.577Z,13.33
2022-10-09T03:35:30.583Z,13.38
2022-10-09T03:36:30.556Z,13.44
2022-10-09T03:37:30.543Z,13.27
2022-10-09T03:38:30.560Z,13.35
2022-10-09T03:39:30.516Z,13.31
2022-10-09T03:40:30.515Z,13.27
2022-10-09T03:41:30.564Z,13.35
2022-10-09T03:42:30.491Z,13.22
2022-10-09T03:43:30.471Z,13.30
2022-10-09T03:44:30.685Z,13.31
2022-10-09T03:45:30.450Z,13.30
2022-10-09T03:46:30.464Z,13.37
2022-10-09T03:47:30.432Z,13.31
2022-10-09T03:48:30.421Z,13.33
2022-10-09T03:49:30.406Z,13.28
2022-10-09T03:50:30.445Z,13.31
2022-10-09T03:51:30.382Z,13.28
2022-10-09T03:52:30.370Z,13.30
2022-10-09T03:53:30.366Z,13.35
2022-10-09T03:54:30.350Z,13.31
2022-10-09T03:55:30.336Z,13.31
2022-10-09T03:56:30.347Z,13.38
2022-10-09T03:57:30.314Z,13.39
2022-10-09T03:58:30.301Z,13.30
2022-10-09T03:59:30.293Z,13.35
2022-10-09T04:00:30.444Z,13.39
2022-10-09T04:01:30.279Z,13.41
2022-10-09T04:02:30.362Z,13.50
2022-10-09T04:03:30.243Z,13.41
2022-10-09T04:04:30.241Z,13.47
2022-10-09T04:05:30.216Z,13.47
2022-10-09T04:06:30.207Z,13.49
2022-10-09T04:07:30.199Z,13.50
2022-10-09T04:08:30.210Z,13.50
2022-10-09T04:09:30.175Z,13.53
2022-10-09T04:10:30.169Z,13.52
2022-10-09T04:11:30.150Z,13.52
2022-10-09T04:12:30.145Z,13.53
2022-10-09T04:13:30.134Z,13.62
2022-10-09T04:14:30.136Z,13.59
2022-10-09T04:15:30.126Z,13.62
2022-10-09T04:16:30.164Z,13.59
2022-10-09T04:17:30.081Z,13.60
2022-10-09T04:18:30.091Z,13.60
2022-10-09T04:19:30.056Z,13.63
2022-10-09T04:20:30.088Z,13.67
2022-10-09T04:21:30.041Z,13.59
2022-10-09T04:22:30.048Z,13.65
2022-10-09T04:23:30.024Z,13.59
2022-10-09T04:24:30.017Z,13.68
2022-10-09T04:25:29.995Z,13.67
2022-10-09T04:26:29.993Z,13.67
2022-10-09T04:27:29.968Z,13.68
2022-10-09T04:28:30.072Z,13.71
2022-10-09T04:29:29.948Z,13.70
2022-10-09T04:30:29.958Z,13.78
2022-10-09T04:31:30.000Z,13.70
2022-10-09T04:32:29.970Z,13.63
2022-10-09T04:33:29.904Z,13.65
2022-10-09T04:34:29.895Z,13.67
2022-10-09T04:35:29.883Z,13.72
2022-10-09T04:36:29.873Z,13.77
2022-10-09T04:37:29.862Z,13.74
2022-10-09T04:38:29.860Z,13.75
2022-10-09T04:39:29.835Z,13.81
2022-10-09T04:40:29.847Z,13.77
2022-10-09T04:41:31.745Z,13.72
2022-10-09T04:42:29.806Z,13.81
2022-10-09T04:43:29.789Z,13.74
2022-10-09T04:44:29.792Z,13.72
2022-10-09T04:45:29.832Z,13.74
2022-10-09T04:46:29.797Z,13.86
2022-10-09T04:47:29.756Z,13.81
2022-10-09T04:48:29.797Z,13.83
2022-10-09T04:49:29.728Z,13.89
2022-10-09T04:50:29.737Z,13.93
2022-10-09T04:51:29.748Z,13.90
2022-10-09T04:52:29.691Z,13.77
2022-10-09T04:53:29.671Z,13.92
2022-10-09T04:54:29.677Z,13.87
2022-10-09T04:55:29.653Z,13.83
2022-10-09T04:56:29.725Z,13.87
2022-10-09T04:57:29.641Z,13.86
2022-10-09T04:58:29.619Z,13.89
2022-10-09T04:59:29.623Z,13.89
2022-10-09T05:00:29.597Z,13.89
2022-10-09T05:01:32.052Z,13.85
2022-10-09T05:02:30.663Z,13.90
2022-10-09T05:03:29.594Z,13.86
2022-10-09T05:04:29.591Z,13.86
2022-10-09T05:05:29.572Z,13.90
2022-10-09T05:06:29.526Z,13.87
2022-10-09T05:07:29.524Z,13.90
2022-10-09T05:08:29.542Z,13.90
2022-10-09T05:09:29.621Z,13.87
2022-10-09T05:10:29.489Z,13.90
2022-10-09T05:11:29.472Z,13.96
2022-10-09T05:12:29.459Z,13.92
2022-10-09T05:13:29.454Z,13.93
2022-10-09T05:14:29.495Z,13.90
2022-10-09T05:15:29.432Z,13.86
2022-10-09T05:16:29.492Z,13.85
2022-10-09T05:17:29.481Z,13.86
2022-10-09T05:18:29.402Z,13.93
2022-10-09T05:19:29.381Z,13.86
2022-10-09T05:20:29.436Z,13.92
2022-10-09T05:21:29.361Z,13.95
2022-10-09T05:22:29.346Z,13.89
2022-10-09T05:23:29.342Z,13.90
2022-10-09T05:24:29.323Z,13.81
2022-10-09T05:25:29.314Z,13.83
2022-10-09T05:26:29.336Z,13.83
2022-10-09T05:27:29.298Z,13.87
2022-10-09T05:28:29.358Z,13.89
2022-10-09T05:29:29.275Z,13.85
2022-10-09T05:30:29.254Z,13.89
2022-10-09T05:31:29.415Z,13.87
2022-10-09T05:32:29.250Z,13.96
2022-10-09T05:33:29.218Z,13.93
2022-10-09T05:34:29.246Z,13.95
2022-10-09T05:35:29.197Z,13.99
2022-10-09T05:36:29.219Z,14.03
2022-10-09T05:37:29.191Z,13.95
2022-10-09T05:38:29.220Z,13.99
2022-10-09T05:39:29.158Z,14.08
2022-10-09T05:40:29.442Z,14.05
2022-10-09T05:41:29.138Z,14.11
2022-10-09T05:42:29.128Z,14.12
2022-10-09T05:43:29.111Z,14.17
2022-10-09T05:44:29.114Z,14.20
2022-10-09T05:45:29.121Z,14.23
2022-10-09T05:46:29.080Z,14.32
2022-10-09T05:47:29.068Z,14.26
2022-10-09T05:48:29.049Z,14.29
2022-10-09T05:49:29.042Z,14.33
2022-10-09T05:50:29.092Z,14.32
2022-10-09T05:51:29.023Z,14.28
2022-10-09T05:52:29.033Z,14.29
2022-10-09T05:53:28.994Z,14.35
2022-10-09T05:54:29.045Z,14.36
2022-10-09T05:55:29.009Z,14.45
2022-10-09T05:56:29.011Z,14.45
2022-10-09T05:57:28.949Z,14.50
2022-10-09T05:58:28.938Z,14.47
2022-10-09T05:59:28.933Z,14.55
2022-10-09T06:00:29.030Z,14.62
2022-10-09T06:01:29.077Z,14.63
2022-10-09T06:02:28.979Z,14.63
2022-10-09T06:03:28.885Z,14.79
2022-10-09T06:04:28.868Z,14.77
2022-10-09T06:05:28.859Z,14.81
2022-10-09T06:06:28.844Z,14.82
2022-10-09T06:07:28.838Z,14.91
2022-10-09T06:08:28.856Z,14.84
2022-10-09T06:09:28.903Z,14.86
2022-10-09T06:10:32.301Z,14.92
2022-10-09T06:11:28.800Z,14.92
2022-10-09T06:12:28.780Z,15.04
2022-10-09T06:13:28.766Z,15.02
2022-10-09T06:14:28.793Z,15.02
2022-10-09T06:15:28.858Z,15.19
2022-10-09T06:16:28.773Z,15.21
2022-10-09T06:17:28.733Z,15.25
2022-10-09T06:18:28.707Z,15.25
2022-10-09T06:19:28.699Z,15.28
2022-10-09T06:20:28.800Z,15.29
2022-10-09T06:21:28.672Z,15.31
2022-10-09T06:22:28.663Z,15.39
2022-10-09T06:23:28.655Z,15.39
2022-10-09T06:24:29.590Z,15.39
2022-10-09T06:25:28.634Z,15.46
2022-10-09T06:26:28.648Z,15.46
2022-10-09T06:27:28.606Z,15.44
2022-10-09T06:28:28.666Z,15.51
2022-10-09T06:29:28.582Z,15.57
2022-10-09T06:30:28.667Z,15.64
2022-10-09T06:31:28.618Z,15.75
2022-10-09T06:32:28.582Z,15.70
2022-10-09T06:33:28.542Z,15.82
2022-10-09T06:34:28.522Z,15.83
2022-10-09T06:35:28.517Z,15.94
2022-10-09T06:36:28.500Z,16.08
2022-10-09T06:37:28.493Z,16.09
2022-10-09T06:38:28.514Z,16.20
2022-10-09T06:39:28.470Z,16.32
2022-10-09T06:40:28.521Z,16.36
2022-10-09T06:41:28.443Z,16.49
2022-10-09T06:42:28.435Z,16.53
2022-10-09T06:43:28.425Z,16.56
2022-10-09T06:44:28.447Z,16.53
2022-10-09T06:45:28.408Z,16.68
2022-10-09T06:46:28.409Z,16.58
2022-10-09T06:47:28.382Z,16.71
2022-10-09T06:48:28.364Z,16.75
2022-10-09T06:49:28.359Z,16.81
2022-10-09T06:50:28.358Z,16.94
2022-10-09T06:51:28.342Z,17.09
2022-10-09T06:52:28.330Z,17.22
2022-10-09T06:53:28.364Z,17.30
2022-10-09T06:54:28.301Z,17.41
2022-10-09T06:55:28.913Z,17.57
2022-10-09T06:56:28.367Z,17.65
2022-10-09T06:57:28.272Z,17.79
2022-10-09T06:58:28.253Z,17.87
2022-10-09T06:59:28.250Z,17.92
2022-10-09T07:00:28.252Z,18.05
2022-10-09T07:01:28.243Z,18.13
2022-10-09T07:02:28.300Z,18.25
2022-10-09T07:03:28.196Z,18.29
2022-10-09T07:04:28.209Z,18.38
2022-10-09T07:05:28.174Z,18.37
2022-10-09T07:06:28.172Z,18.49
2022-10-09T07:07:28.154Z,18.47
2022-10-09T07:08:28.153Z,18.49
2022-10-09T07:09:28.131Z,18.47
2022-10-09T07:10:28.157Z,18.45
2022-10-09T07:11:28.181Z,18.52
2022-10-09T07:12:28.120Z,18.49
2022-10-09T07:13:28.085Z,18.49
2022-10-09T07:14:28.083Z,18.47
2022-10-09T07:15:28.120Z,18.49
2022-10-09T07:16:28.159Z,18.56
2022-10-09T07:17:28.057Z,18.53
2022-10-09T07:18:28.031Z,18.40
2022-10-09T07:19:28.014Z,18.34
2022-10-09T07:20:28.041Z,18.40
2022-10-09T07:21:27.989Z,18.41
2022-10-09T07:22:27.981Z,18.38
2022-10-09T07:23:27.972Z,18.40
2022-10-09T07:24:27.976Z,18.40
2022-10-09T07:25:27.952Z,18.41
2022-10-09T07:26:27.977Z,18.47
2022-10-09T07:27:27.923Z,18.49
2022-10-09T07:28:28.011Z,18.49
2022-10-09T07:29:27.897Z,18.43
2022-10-09T07:30:27.914Z,18.45
2022-10-09T07:31:27.939Z,18.29
2022-10-09T07:32:27.885Z,18.23
2022-10-09T07:33:27.858Z,18.23
2022-10-09T07:34:27.873Z,18.35
2022-10-09T07:35:27.838Z,18.37
2022-10-09T07:36:27.819Z,18.47
2022-10-09T07:37:27.831Z,18.47
2022-10-09T07:38:27.912Z,18.40
2022-10-09T07:39:27.788Z,18.38
2022-10-09T07:40:27.781Z,18.43
2022-10-09T07:41:27.851Z,18.37
2022-10-09T07:42:27.753Z,18.49
2022-10-09T07:43:27.739Z,18.44
2022-10-09T07:44:27.837Z,18.52
2022-10-09T07:45:27.721Z,18.44
2022-10-09T07:46:33.026Z,18.55
2022-10-09T07:47:28.698Z,18.59
2022-10-09T07:48:27.707Z,18.63
2022-10-09T07:49:27.676Z,18.60
2022-10-09T07:50:27.676Z,18.70
2022-10-09T07:51:27.657Z,18.68
2022-10-09T07:52:27.641Z,18.68
2022-10-09T07:53:27.628Z,18.68
2022-10-09T07:54:27.615Z,18.70
2022-10-09T07:55:27.642Z,18.65
2022-10-09T07:56:27.622Z,18.65
2022-10-09T07:57:27.578Z,18.66
2022-10-09T07:58:27.580Z,18.62
2022-10-09T07:59:27.582Z,18.49
2022-10-09T08:00:27.576Z,18.47
2022-10-09T08:01:27.586Z,18.40
2022-10-09T08:02:27.602Z,18.37
2022-10-09T08:03:27.515Z,18.40
2022-10-09T08:04:27.499Z,18.23
2022-10-09T08:05:27.506Z,18.26
2022-10-09T08:06:27.474Z,18.19
2022-10-09T08:07:31.345Z,18.10
2022-10-09T08:08:28.535Z,18.11
2022-10-09T08:09:27.454Z,18.10
2022-10-09T08:10:27.433Z,18.10
2022-10-09T08:11:27.432Z,18.01
2022-10-09T08:12:27.416Z,17.97
2022-10-09T08:13:27.397Z,18.04
2022-10-09T08:14:27.419Z,18.11
2022-10-09T08:15:27.408Z,18.15
2022-10-09T08:16:27.391Z,18.29
2022-10-09T08:17:27.383Z,18.25
2022-10-09T08:18:27.345Z,18.35
2022-10-09T08:19:27.343Z,18.50
2022-10-09T08:20:27.349Z,18.56
2022-10-09T08:21:27.313Z,18.71
2022-10-09T08:22:27.317Z,18.77
2022-10-09T08:23:27.303Z,18.88
2022-10-09T08:24:27.307Z,18.83
2022-10-09T08:25:27.290Z,18.89
2022-10-09T08:26:27.273Z,18.96
2022-10-09T08:27:27.241Z,18.98
2022-10-09T08:28:27.313Z,19.07
2022-10-09T08:29:27.217Z,18.99
2022-10-09T08:30:27.205Z,18.93
2022-10-09T08:31:27.334Z,18.84
2022-10-09T08:32:27.245Z,18.98
2022-10-09T08:33:27.195Z,18.92
2022-10-09T08:34:27.161Z,18.90
2022-10-09T08:35:29.976Z,19.02
2022-10-09T08:36:28.135Z,18.99
2022-10-09T08:37:27.127Z,18.89
2022-10-09T08:38:46.190Z,18.86
2022-10-09T08:39:28.103Z,18.74
2022-10-09T08:40:27.100Z,18.68
2022-10-09T08:41:27.082Z,18.70
2022-10-09T08:42:27.066Z,18.63
2022-10-09T08:43:27.063Z,18.65
2022-10-09T08:44:27.095Z,18.60
2022-10-09T08:45:27.040Z,18.66
2022-10-09T08:46:27.076Z,18.68
2022-10-09T08:47:27.026Z,18.70
2022-10-09T08:48:27.030Z,18.70
2022-10-09T08:49:26.991Z,18.73
2022-10-09T08:50:27.005Z,18.73
2022-10-09T08:51:26.995Z,18.78
2022-10-09T08:52:27.061Z,18.81
2022-10-09T08:53:26.949Z,18.80
2022-10-09T08:54:26.928Z,18.84
2022-10-09T08:55:26.927Z,18.89
2022-10-09T08:56:26.929Z,18.90
2022-10-09T08:57:26.904Z,18.92
2022-10-09T08:58:26.898Z,18.88
2022-10-09T08:59:26.875Z,18.90
2022-10-09T09:00:26.872Z,18.93
2022-10-09T09:01:26.991Z,19.02
2022-10-09T09:02:26.919Z,19.02
2022-10-09T09:03:26.838Z,18.99
2022-10-09T09:04:26.872Z,19.02
2022-10-09T09:05:26.833Z,19.15
2022-10-09T09:06:26.803Z,19.18
2022-10-09T09:07:26.789Z,19.24
2022-10-09T09:08:26.919Z,19.31
2022-10-09T09:09:26.769Z,19.31
2022-10-09T09:10:26.750Z,19.30
2022-10-09T09:11:26.742Z,19.33
2022-10-09T09:12:26.761Z,19.26
2022-10-09T09:13:26.730Z,19.40
2022-10-09T09:14:26.815Z,19.44
2022-10-09T09:15:26.713Z,19.40
2022-10-09T09:16:26.735Z,19.47
2022-10-09T09:17:26.685Z,19.51
2022-10-09T09:18:26.665Z,19.40
2022-10-09T09:19:26.674Z,19.39
2022-10-09T09:20:26.685Z,19.44
2022-10-09T09:21:26.630Z,19.44
2022-10-09T09:22:26.614Z,19.45
2022-10-09T09:23:26.602Z,19.41
2022-10-09T09:24:26.597Z,19.51
2022-10-09T09:25:26.599Z,19.47
2022-10-09T09:26:26.631Z,19.52
2022-10-09T09:27:26.560Z,19.52
2022-10-09T09:28:26.582Z,19.56
2022-10-09T09:29:26.603Z,19.52
2022-10-09T09:30:26.530Z,19.55
2022-10-09T09:31:26.564Z,19.55
2022-10-09T09:32:26.533Z,19.59
2022-10-09T09:33:26.502Z,19.63
2022-10-09T09:34:26.486Z,19.76
2022-10-09T09:35:26.493Z,19.63
2022-10-09T09:36:26.488Z,19.63
2022-10-09T09:37:26.455Z,19.41
2022-10-09T09:38:26.460Z,19.44
2022-10-09T09:40:46.834Z,19.29
2022-10-09T09:41:27.400Z,19.31
2022-10-09T09:42:26.394Z,19.26
2022-10-09T09:43:26.380Z,19.29
2022-10-09T09:44:26.402Z,19.27
2022-10-09T09:45:26.354Z,19.21
2022-10-09T09:46:26.401Z,19.34
2022-10-09T09:47:26.340Z,19.31
2022-10-09T09:48:26.352Z,19.30
2022-10-09T09:49:26.321Z,19.29
2022-10-09T09:50:46.233Z,19.33
2022-10-09T09:51:29.168Z,19.36
2022-10-09T09:52:26.300Z,19.39
2022-10-09T09:53:26.260Z,19.39
2022-10-09T09:54:26.255Z,19.37
2022-10-09T09:55:26.246Z,19.44
2022-10-09T09:56:26.247Z,19.48
2022-10-09T09:57:26.225Z,19.49
2022-10-09T09:58:26.214Z,19.48
2022-10-09T09:59:26.192Z,19.70
2022-10-09T10:00:26.192Z,19.62
2022-10-09T10:01:26.279Z,19.62
2022-10-09T10:02:26.334Z,19.73
2022-10-09T10:03:26.160Z,19.73
2022-10-09T10:04:26.208Z,19.79
2022-10-09T10:05:26.135Z,19.89
2022-10-09T10:06:26.112Z,19.79
2022-10-09T10:07:26.107Z,19.79
2022-10-09T10:08:26.144Z,19.77
2022-10-09T10:09:26.104Z,19.76
2022-10-09T10:10:26.145Z,19.76
2022-10-09T10:11:26.057Z,19.79
2022-10-09T10:12:26.056Z,19.85
2022-10-09T10:13:26.046Z,19.99
2022-10-09T10:14:26.067Z,19.89
2022-10-09T10:15:26.025Z,19.92
2022-10-09T10:16:26.086Z,20.02
2022-10-09T10:17:25.990Z,20.10
2022-10-09T10:18:25.984Z,20.13
2022-10-09T10:19:25.988Z,20.21
2022-10-09T10:20:26.046Z,20.24
2022-10-09T10:21:25.952Z,20.16
2022-10-09T10:22:25.942Z,20.04
2022-10-09T10:23:25.929Z,19.95
2022-10-09T10:24:25.996Z,19.96
2022-10-09T10:25:25.898Z,19.86
2022-10-09T10:26:25.940Z,19.69
2022-10-09T10:27:25.885Z,19.59
2022-10-09T10:28:25.898Z,19.63
2022-10-09T10:29:25.860Z,19.55
2022-10-09T10:30:25.851Z,19.52
2022-10-09T10:31:25.879Z,19.51
2022-10-09T10:32:25.863Z,19.55
2022-10-09T10:33:25.812Z,19.48
2022-10-09T10:34:25.832Z,19.56
2022-10-09T10:35:25.793Z,19.66
2022-10-09T10:36:25.783Z,19.66
2022-10-09T10:37:25.767Z,19.69
2022-10-09T10:38:25.809Z,19.82
2022-10-09T10:39:25.743Z,19.89
2022-10-09T10:40:25.760Z,19.89
2022-10-09T10:41:25.724Z,19.89
2022-10-09T10:42:25.712Z,19.88
2022-10-09T10:43:25.705Z,19.92
2022-10-09T10:44:25.724Z,19.94
2022-10-09T10:45:25.674Z,19.86
2022-10-09T10:46:25.702Z,19.86
2022-10-09T10:47:25.652Z,19.79
2022-10-09T10:48:25.676Z,19.66
2022-10-09T10:49:26.855Z,19.69
2022-10-09T10:50:25.663Z,19.71
2022-10-09T10:51:25.611Z,19.66
2022-10-09T10:52:25.597Z,19.71
2022-10-09T10:53:25.590Z,19.73
2022-10-09T10:54:25.608Z,19.70
2022-10-09T10:55:25.577Z,19.74
2022-10-09T10:56:25.609Z,19.79
2022-10-09T10:57:25.539Z,19.81
2022-10-09T10:58:25.540Z,19.81
2022-10-09T10:59:25.513Z,19.94
2022-10-09T11:00:25.514Z,19.91
2022-10-09T11:01:25.600Z,19.85
2022-10-09T11:02:25.510Z,19.94
2022-10-09T11:03:25.575Z,19.86
2022-10-09T11:04:25.461Z,19.92
2022-10-09T11:05:25.458Z,19.91
2022-10-09T11:06:25.436Z,19.88
2022-10-09T11:07:25.429Z,19.88
2022-10-09T11:08:25.439Z,19.94
2022-10-09T11:09:25.406Z,20.04
2022-10-09T11:10:25.400Z,19.89
2022-10-09T11:11:25.376Z,19.84
2022-10-09T11:12:46.669Z,19.89
2022-10-09T11:13:26.377Z,19.74
2022-10-09T11:14:25.352Z,19.85
2022-10-09T11:15:25.343Z,19.76
2022-10-09T11:16:26.131Z,19.70
2022-10-09T11:17:25.317Z,19.77
2022-10-09T11:18:25.315Z,19.85
2022-10-09T11:19:25.366Z,19.81
2022-10-09T11:20:25.282Z,19.86
2022-10-09T11:21:25.273Z,19.99
2022-10-09T11:22:25.260Z,19.89
2022-10-09T11:23:25.277Z,19.92
2022-10-09T11:24:25.247Z,19.96
2022-10-09T11:25:25.313Z,20.02
2022-10-09T11:26:25.234Z,20.09
2022-10-09T11:27:25.206Z,20.07
2022-10-09T11:28:25.293Z,20.19
2022-10-09T11:29:25.188Z,20.07
2022-10-09T11:30:25.169Z,20.22
2022-10-09T11:31:25.251Z,20.19
2022-10-09T11:32:25.150Z,20.29
2022-10-09T11:33:25.158Z,20.29
2022-10-09T11:34:25.128Z,20.37
2022-10-09T11:35:25.112Z,20.40
2022-10-09T11:36:25.252Z,20.51
2022-10-09T11:37:25.117Z,20.52
2022-10-09T11:38:25.069Z,20.52
2022-10-09T11:39:25.064Z,20.58
2022-10-09T11:40:25.053Z,20.59
2022-10-09T11:41:25.043Z,20.51
2022-10-09T11:42:25.037Z,20.62
2022-10-09T11:43:25.059Z,20.66
2022-10-09T11:44:25.059Z,20.67
2022-10-09T11:45:25.084Z,20.67
2022-10-09T11:46:25.000Z,20.77
2022-10-09T11:47:24.983Z,20.72
2022-10-09T11:48:24.964Z,20.72
2022-10-09T11:49:25.009Z,20.77
2022-10-09T11:50:24.970Z,20.80
2022-10-09T11:51:24.926Z,20.80
2022-10-09T11:52:24.943Z,20.72
2022-10-09T11:53:24.909Z,20.72
2022-10-09T11:54:24.928Z,20.75
2022-10-09T11:55:24.919Z,20.85
2022-10-09T11:56:24.943Z,20.81
2022-10-09T11:57:24.857Z,20.85
2022-10-09T11:58:24.879Z,20.87
2022-10-09T11:59:24.837Z,20.82
2022-10-09T12:00:24.852Z,20.85
2022-10-09T12:01:24.937Z,20.90
2022-10-09T12:02:24.945Z,20.85
2022-10-09T12:03:24.796Z,20.84
2022-10-09T12:04:43.497Z,20.87
2022-10-09T12:05:25.768Z,20.87
2022-10-09T12:06:24.755Z,20.81
2022-10-09T12:07:24.836Z,20.80
2022-10-09T12:08:24.789Z,20.80
2022-10-09T12:09:24.735Z,20.78
2022-10-09T12:10:24.713Z,20.74
2022-10-09T12:11:24.706Z,20.78
2022-10-09T12:12:24.693Z,20.75
2022-10-09T12:13:24.710Z,20.72
2022-10-09T12:14:24.674Z,20.69
2022-10-09T12:15:24.665Z,20.75
2022-10-09T12:16:24.736Z,20.72
2022-10-09T12:17:24.637Z,20.70
2022-10-09T12:18:24.621Z,20.60
2022-10-09T12:19:24.647Z,20.66
2022-10-09T12:20:24.596Z,20.60
2022-10-09T12:21:24.595Z,20.52
2022-10-09T12:22:24.584Z,20.60
2022-10-09T12:23:27.386Z,20.55
2022-10-09T12:24:24.556Z,20.50
2022-10-09T12:25:24.569Z,20.50
2022-10-09T12:26:24.553Z,20.51
2022-10-09T12:27:24.523Z,20.44
2022-10-09T12:28:24.577Z,20.50
2022-10-09T12:29:24.503Z,20.41
2022-10-09T12:30:24.485Z,20.51
2022-10-09T12:31:24.588Z,20.34
2022-10-09T12:32:24.489Z,20.40
2022-10-09T12:33:24.446Z,20.43
2022-10-09T12:34:24.439Z,20.44
2022-10-09T12:35:24.433Z,20.37
2022-10-09T12:36:24.446Z,20.39
2022-10-09T12:37:24.432Z,20.44
2022-10-09T12:38:24.394Z,20.37
2022-10-09T12:39:24.383Z,20.37
2022-10-09T12:40:24.374Z,20.29
2022-10-09T12:41:24.364Z,20.28
2022-10-09T12:42:24.472Z,20.26
2022-10-09T12:43:24.405Z,20.25
2022-10-09T12:44:24.327Z,20.19
2022-10-09T12:45:24.336Z,20.22
2022-10-09T12:46:24.370Z,20.18
2022-10-09T12:47:24.317Z,20.13
2022-10-09T12:48:24.311Z,20.14
2022-10-09T12:49:24.283Z,20.24
2022-10-09T12:50:24.265Z,20.22
2022-10-09T12:51:24.243Z,20.24
2022-10-09T12:52:24.233Z,20.29
2022-10-09T12:53:24.226Z,20.21